Time;durP1;ratioP1;P1;durP2;ratioP2;P2;SDS_P1;SDS_P2;PMS_P1;PMS_P2;Temp;Humidity;BMP_temperature;BMP_pressure;BME280_temperature;BME280_humidity;BME280_pressure;Samples;Min_cycle;Max_cycle;Signal;HPM_P1;HPM_P2
2021/11/08 00:02:25;;;;;;;6.78;5.43;;;10.20;99.90;;;;;;5070762;28;20029;-75
2021/11/08 00:04:51;;;;;;;7.03;5.53;;;10.10;99.90;;;;;;5072017;28;20542;-75
2021/11/08 00:07:17;;;;;;;8.90;6.38;;;10.00;99.90;;;;;;5072189;28;20059;-75
2021/11/08 00:09:45;;;;;;;11.70;6.75;;;10.00;99.90;;;;;;5070612;28;20028;-75
2021/11/08 00:12:13;;;;;;;12.07;7.22;;;10.00;99.90;;;;;;5070662;28;20051;-75
2021/11/08 00:14:40;;;;;;;10.13;6.35;;;10.00;99.90;;;;;;5071774;28;20487;-75
2021/11/08 00:17:25;;;;;;;9.77;7.07;;;9.90;99.90;;;;;;5071828;28;20021;-75
2021/11/08 00:22:16;;;;;;;9.95;6.07;;;9.80;99.90;;;;;;5071254;28;20025;-75
2021/11/08 00:24:47;;;;;;;9.13;6.50;;;9.70;99.90;;;;;;5071745;28;20101;-75
2021/11/08 00:27:12;;;;;;;9.80;6.90;;;9.70;99.90;;;;;;5071925;28;20028;-75
2021/11/08 00:29:38;;;;;;;8.55;6.28;;;9.70;99.90;;;;;;5071274;28;20021;-75
2021/11/08 00:32:06;;;;;;;7.85;5.45;;;9.80;99.90;;;;;;5071716;28;20031;-75
2021/11/08 00:34:32;;;;;;;5.32;4.70;;;9.80;99.90;;;;;;5070412;28;20109;-75
2021/11/08 00:36:58;;;;;;;7.75;4.40;;;9.80;99.90;;;;;;5070225;28;20486;-75
2021/11/08 00:39:25;;;;;;;5.20;4.03;;;9.80;99.90;;;;;;5071587;28;20025;-75
2021/11/08 00:41:51;;;;;;;7.40;3.90;;;9.80;99.90;;;;;;5071627;28;20044;-75
2021/11/08 00:44:18;;;;;;;4.65;4.25;;;9.90;99.90;;;;;;5070054;28;20089;-75
2021/11/08 00:46:44;;;;;;;4.78;3.95;;;9.80;99.90;;;;;;5071396;28;20112;-75
2021/11/08 00:49:11;;;;;;;7.20;3.42;;;9.90;99.90;;;;;;5071567;28;20032;-75
2021/11/08 00:51:41;;;;;;;4.95;3.70;;;9.90;99.90;;;;;;5070354;28;20102;-75
2021/11/08 00:54:11;;;;;;;4.30;3.90;;;9.90;99.90;;;;;;5070381;28;20046;-75
2021/11/08 00:56:38;;;;;;;5.63;4.30;;;9.90;99.90;;;;;;5070108;28;20509;-75
2021/11/08 00:59:04;;;;;;;6.60;3.88;;;9.90;99.90;;;;;;5071507;28;20497;-75
2021/11/08 01:01:31;;;;;;;7.40;4.40;;;9.90;99.90;;;;;;5071363;28;20017;-75
2021/11/08 01:03:56;;;;;;;5.32;4.55;;;9.90;99.90;;;;;;5071375;28;20078;-75
2021/11/08 01:06:23;;;;;;;4.63;4.15;;;9.90;99.90;;;;;;5071338;28;20028;-75
2021/11/08 01:08:49;;;;;;;4.80;4.00;;;9.90;99.90;;;;;;5071333;28;20028;-75
2021/11/08 01:11:15;;;;;;;6.10;3.85;;;9.80;99.90;;;;;;5070109;28;20032;-75
2021/11/08 01:13:43;;;;;;;4.25;3.67;;;9.90;99.90;;;;;;5071156;28;20036;-75
2021/11/08 01:16:10;;;;;;;6.80;4.55;;;9.90;99.90;;;;;;5069802;28;20375;-75
2021/11/08 01:18:36;;;;;;;4.20;3.75;;;9.90;99.90;;;;;;5071173;28;20037;-75
2021/11/08 01:21:03;;;;;;;4.25;3.85;;;9.90;99.90;;;;;;5069831;28;20536;-75
2021/11/08 01:23:29;;;;;;;5.20;4.13;;;9.90;99.90;;;;;;5071106;28;20043;-75
2021/11/08 01:26:30;;;;;;;3.92;3.58;;;9.90;99.90;;;;;;5069850;28;20525;-75
2021/11/08 01:28:49;;;;;;;7.63;3.63;;;9.90;99.90;;;;;;5070678;28;20041;-75
2021/11/08 01:31:19;;;;;;;5.88;4.00;;;9.90;99.90;;;;;;5071011;28;20098;-75
2021/11/08 01:33:50;;;;;;;3.67;3.38;;;9.90;99.90;;;;;;5069707;28;20025;-75
2021/11/08 01:36:22;;;;;;;6.10;4.13;;;9.90;99.90;;;;;;5072988;28;20048;-75
2021/11/08 01:38:49;;;;;;;9.05;4.72;;;9.90;99.90;;;;;;5074843;28;20020;-75
2021/11/08 01:41:20;;;;;;;4.57;4.05;;;9.90;99.90;;;;;;5074823;28;20016;-75
2021/11/08 01:43:47;;;;;;;4.65;4.03;;;9.90;99.90;;;;;;5073443;28;20029;-75
2021/11/08 01:46:13;;;;;;;5.55;4.40;;;10.00;99.90;;;;;;5073361;28;20433;-75
2021/11/08 01:48:40;;;;;;;4.80;3.47;;;9.90;99.90;;;;;;5074467;28;20029;-75
2021/11/08 01:51:06;;;;;;;4.75;3.47;;;9.90;99.90;;;;;;5074816;28;20024;-75
2021/11/08 01:53:33;;;;;;;4.80;4.03;;;9.90;99.90;;;;;;5073071;28;20483;-75
2021/11/08 01:55:59;;;;;;;4.43;3.90;;;9.90;99.90;;;;;;5074114;28;20054;-75
2021/11/08 01:58:27;;;;;;;3.13;2.83;;;9.90;99.90;;;;;;5074486;28;20020;-75
2021/11/08 02:00:54;;;;;;;3.38;3.08;;;9.90;99.90;;;;;;5074703;28;20074;-75
2021/11/08 02:03:21;;;;;;;4.18;3.42;;;9.80;99.90;;;;;;5073007;28;20306;-75
2021/11/08 02:05:47;;;;;;;3.70;3.00;;;9.80;99.90;;;;;;5074167;28;20032;-75
2021/11/08 02:08:13;;;;;;;4.38;3.33;;;9.80;99.90;;;;;;5074260;28;20028;-75
2021/11/08 02:10:39;;;;;;;5.20;3.70;;;9.70;99.90;;;;;;5074041;28;20386;-75
2021/11/08 02:13:07;;;;;;;5.20;3.83;;;9.70;99.90;;;;;;5074154;28;20028;-75
2021/11/08 02:15:35;;;;;;;5.63;3.22;;;9.70;99.90;;;;;;5073934;28;20079;-75
2021/11/08 02:18:01;;;;;;;4.53;3.40;;;9.70;99.90;;;;;;5074133;28;20017;-75
2021/11/08 02:20:30;;;;;;;4.30;3.72;;;9.70;99.90;;;;;;5073841;28;20029;-75
2021/11/08 02:23:04;;;;;;;4.10;3.42;;;9.70;99.90;;;;;;5073796;28;20026;-75
2021/11/08 02:25:33;;;;;;;6.28;3.50;;;9.70;99.90;;;;;;5074166;28;20404;-75
2021/11/08 02:27:59;;;;;;;5.18;3.15;;;9.70;99.90;;;;;;5074171;28;20108;-75
2021/11/08 02:30:28;;;;;;;3.80;2.97;;;9.60;99.90;;;;;;5074101;28;20025;-75
2021/11/08 02:32:57;;;;;;;4.35;3.78;;;9.70;99.90;;;;;;5073988;28;20070;-75
2021/11/08 02:35:24;;;;;;;7.30;3.63;;;9.70;99.90;;;;;;5053826;28;20079;-75
2021/11/08 02:37:51;;;;;;;4.68;2.90;;;9.70;99.90;;;;;;5066955;28;20136;-75
2021/11/08 02:40:24;;;;;;;3.78;2.97;;;9.70;99.90;;;;;;5073558;28;20056;-75
2021/11/08 02:42:53;;;;;;;4.10;3.03;;;9.60;99.90;;;;;;5073474;28;20020;-75
2021/11/08 02:45:24;;;;;;;3.90;2.67;;;9.70;99.90;;;;;;5071593;28;20024;-75
2021/11/08 02:47:50;;;;;;;3.90;2.72;;;9.70;99.90;;;;;;5073439;28;20048;-75
2021/11/08 02:50:19;;;;;;;3.30;3.00;;;9.70;99.90;;;;;;5072188;28;20123;-75
2021/11/08 02:52:46;;;;;;;6.18;3.10;;;9.60;99.90;;;;;;5072228;28;20028;-75
2021/11/08 02:55:16;;;;;;;3.40;3.10;;;9.60;99.90;;;;;;5073159;28;20029;-75
2021/11/08 02:57:42;;;;;;;4.82;2.85;;;9.70;99.90;;;;;;5073158;28;20044;-75
2021/11/08 03:00:12;;;;;;;2.92;2.63;;;9.70;99.90;;;;;;5071957;28;20430;-75
2021/11/08 03:02:39;;;;;;;4.75;2.65;;;9.70;99.90;;;;;;5071864;28;20029;-75
2021/11/08 03:05:07;;;;;;;2.40;2.20;;;9.70;99.90;;;;;;5072954;28;20021;-75
2021/11/08 03:07:37;;;;;;;3.25;2.95;;;9.80;99.90;;;;;;5073026;28;20028;-75
2021/11/08 03:10:07;;;;;;;4.20;2.75;;;9.80;99.90;;;;;;5072975;28;20107;-75
2021/11/08 03:12:36;;;;;;;5.97;3.47;;;9.80;99.90;;;;;;5072890;28;20116;-75
2021/11/08 03:15:12;;;;;;;2.67;2.47;;;9.80;99.90;;;;;;5072718;28;20432;-75
2021/11/08 03:17:42;;;;;;;4.82;2.45;;;9.80;99.90;;;;;;5072731;28;20024;-75
2021/11/08 03:20:11;;;;;;;3.97;2.53;;;9.80;99.90;;;;;;5072741;28;20025;-75
2021/11/08 03:22:39;;;;;;;3.65;2.30;;;9.90;99.90;;;;;;5072734;28;20036;-75
2021/11/08 03:25:17;;;;;;;3.15;2.95;;;9.90;99.90;;;;;;5053865;28;20021;-75
2021/11/08 03:30:15;;;;;;;3.35;3.05;;;9.90;99.90;;;;;;5052684;28;20502;-75
2021/11/08 03:32:44;;;;;;;3.15;2.88;;;9.90;99.90;;;;;;5052579;28;20047;-75
2021/11/08 03:35:12;;;;;;;3.47;2.78;;;9.90;99.90;;;;;;5050968;28;20087;-75
2021/11/08 03:37:42;;;;;;;2.95;2.75;;;9.90;99.90;;;;;;5052639;28;20029;-75
2021/11/08 03:40:11;;;;;;;4.53;2.75;;;9.90;99.90;;;;;;5052633;28;20483;-75
2021/11/08 03:42:37;;;;;;;4.72;2.75;;;10.00;99.90;;;;;;5052534;28;20123;-75
2021/11/08 03:45:05;;;;;;;3.35;2.88;;;10.00;99.90;;;;;;5052089;28;20354;-75
2021/11/08 03:47:31;;;;;;;2.78;2.45;;;10.00;99.90;;;;;;5052224;28;20029;-75
2021/11/08 03:49:57;;;;;;;2.35;2.05;;;10.00;99.90;;;;;;5052381;28;20031;-75
2021/11/08 03:52:23;;;;;;;3.05;2.38;;;10.10;99.90;;;;;;5052211;28;20071;-75
2021/11/08 03:54:49;;;;;;;4.20;2.42;;;10.10;99.90;;;;;;5051989;28;20029;-75
2021/11/08 03:57:15;;;;;;;5.22;1.98;;;10.10;99.90;;;;;;5051387;28;20028;-75
2021/11/08 03:59:41;;;;;;;2.42;2.30;;;10.10;99.90;;;;;;5052045;28;20430;-75
2021/11/08 04:02:07;;;;;;;3.47;2.22;;;10.20;99.90;;;;;;5052028;28;20067;-75
2021/11/08 04:04:33;;;;;;;2.00;1.90;;;10.20;99.90;;;;;;5052031;28;20032;-75
2021/11/08 04:06:59;;;;;;;2.72;2.20;;;10.20;99.90;;;;;;5051820;28;20025;-75
2021/11/08 04:09:26;;;;;;;3.17;2.10;;;10.20;99.90;;;;;;5050677;28;20044;-75
2021/11/08 04:11:54;;;;;;;2.95;2.13;;;10.30;99.90;;;;;;5052045;28;20025;-75
2021/11/08 04:14:23;;;;;;;4.13;2.35;;;10.30;99.90;;;;;;5051745;28;20021;-75
2021/11/08 04:16:48;;;;;;;2.45;2.03;;;10.30;99.90;;;;;;5051630;28;20529;-75
2021/11/08 04:19:14;;;;;;;2.47;2.28;;;10.20;99.90;;;;;;5050539;28;20029;-75
2021/11/08 04:21:41;;;;;;;5.63;2.97;;;10.30;99.90;;;;;;5051797;28;20021;-75
2021/11/08 04:24:08;;;;;;;3.60;2.63;;;10.20;99.90;;;;;;5050254;28;20028;-75
2021/11/08 04:26:36;;;;;;;2.72;2.50;;;10.30;99.90;;;;;;5051726;28;20128;-75
2021/11/08 04:29:04;;;;;;;2.50;2.30;;;10.20;99.90;;;;;;5062300;28;20110;-75
2021/11/08 04:31:34;;;;;;;3.22;2.92;;;10.30;99.90;;;;;;5071754;28;20031;-75
2021/11/08 04:34:04;;;;;;;3.10;2.83;;;10.20;99.90;;;;;;5071718;28;20091;-75
2021/11/08 04:37:05;;;;;;;4.25;2.55;;;10.20;99.90;;;;;;5069469;28;20451;-75
2021/11/08 04:39:40;;;;;;;2.75;2.42;;;10.30;99.90;;;;;;5071361;28;20024;-75
2021/11/08 04:45:07;;;;;;;4.03;2.33;;;10.20;99.90;;;;;;5071401;28;20171;-75
2021/11/08 04:55:06;;;;;;;2.83;2.45;;;10.20;99.90;;;;;;5071149;28;20016;-75
2021/11/08 05:22:03;;;;;;;7.30;5.75;;;10.20;99.90;;;;;;5075481;28;20036;-75
2021/11/08 05:32:18;;;;;;;9.98;6.55;;;10.20;99.90;;;;;;5074930;28;20086;-75
2021/11/08 05:34:44;;;;;;;10.57;7.00;;;10.20;99.90;;;;;;5074664;28;20500;-75
2021/11/08 05:37:10;;;;;;;14.73;7.10;;;10.20;99.90;;;;;;5073383;28;20077;-75
2021/11/08 05:39:39;;;;;;;9.13;7.13;;;10.10;99.90;;;;;;5074901;28;20021;-75
2021/11/08 05:42:05;;;;;;;11.32;7.68;;;10.20;99.90;;;;;;5073330;28;20066;-75
2021/11/08 05:44:32;;;;;;;11.40;8.05;;;10.20;99.90;;;;;;5074643;28;20081;-75
2021/11/08 05:46:58;;;;;;;10.68;7.45;;;10.10;99.90;;;;;;5074502;28;20390;-75
2021/11/08 05:49:24;;;;;;;11.27;7.60;;;10.10;99.90;;;;;;5073321;28;20029;-75
2021/11/08 05:51:50;;;;;;;11.10;7.70;;;10.10;99.90;;;;;;5073244;28;20028;-75
2021/11/08 05:54:20;;;;;;;12.82;7.80;;;10.10;99.90;;;;;;5065805;28;20509;-75
2021/11/08 06:51:35;;;;;;;4.00;3.67;;;10.00;99.90;;;;;;5073688;28;20074;-78
2021/11/08 06:54:02;;;;;;;5.13;4.38;;;10.00;99.90;;;;;;5072855;28;20507;-77
2021/11/08 06:56:32;;;;;;;5.60;4.68;;;10.00;99.90;;;;;;5073795;28;20024;-78
2021/11/08 06:58:58;;;;;;;6.82;4.15;;;10.00;99.90;;;;;;5073373;28;20025;-78
2021/11/08 07:01:24;;;;;;;10.25;4.95;;;10.10;99.90;;;;;;5074274;28;20023;-78
2021/11/08 07:03:50;;;;;;;5.68;5.10;;;10.10;99.90;;;;;;5074469;28;20036;-77
2021/11/08 07:06:15;;;;;;;12.88;6.63;;;10.10;99.90;;;;;;5074421;28;20036;-78
2021/11/08 07:08:41;;;;;;;7.20;5.53;;;10.10;99.90;;;;;;5074498;28;20028;-77
2021/11/08 07:11:07;;;;;;;7.03;5.50;;;10.10;99.90;;;;;;5073806;28;20031;-78
2021/11/08 07:13:32;;;;;;;5.88;4.70;;;10.10;99.90;;;;;;5072897;28;20037;-78
2021/11/08 07:15:58;;;;;;;7.03;4.43;;;10.10;99.90;;;;;;5072905;28;20020;-77
2021/11/08 07:18:24;;;;;;;5.22;4.20;;;10.10;99.90;;;;;;5071719;28;20398;-78
2021/11/08 07:20:50;;;;;;;5.40;4.03;;;10.20;99.90;;;;;;5071660;28;20024;-77
2021/11/08 07:23:16;;;;;;;5.18;4.55;;;10.20;99.90;;;;;;5072600;28;20028;-77
2021/11/08 07:25:42;;;;;;;6.00;4.18;;;10.20;99.90;;;;;;5072771;28;20051;-77
2021/11/08 07:28:11;;;;;;;4.85;4.15;;;10.20;99.90;;;;;;5071402;28;20263;-77
2021/11/08 07:30:38;;;;;;;7.15;4.32;;;10.30;99.90;;;;;;5073727;28;20028;-78
2021/11/08 07:33:04;;;;;;;7.05;4.50;;;10.30;99.90;;;;;;5072440;28;20028;-77
2021/11/08 07:35:30;;;;;;;6.38;5.15;;;10.30;99.90;;;;;;5072109;28;20078;-77
2021/11/08 07:37:56;;;;;;;5.38;4.72;;;10.30;99.90;;;;;;5070937;28;20115;-77
2021/11/08 07:40:21;;;;;;;7.30;4.90;;;10.20;99.90;;;;;;5072105;28;20382;-77
2021/11/08 07:42:49;;;;;;;5.00;4.50;;;10.20;99.90;;;;;;5069959;28;20112;-78
2021/11/08 07:45:15;;;;;;;4.38;3.97;;;10.20;99.90;;;;;;5072309;28;20514;-77
2021/11/08 07:47:40;;;;;;;6.20;4.70;;;10.30;99.90;;;;;;5070836;28;20067;-78
2021/11/08 07:50:07;;;;;;;6.57;5.32;;;10.30;99.90;;;;;;5072204;28;20055;-78
2021/11/08 07:52:33;;;;;;;6.20;4.55;;;10.30;99.90;;;;;;5072088;28;20033;-78
2021/11/08 07:55:00;;;;;;;6.68;4.68;;;10.20;99.90;;;;;;5072051;28;20032;-78
2021/11/08 07:57:26;;;;;;;5.25;4.28;;;10.30;99.90;;;;;;5072038;28;20056;-78
2021/11/08 07:59:52;;;;;;;11.00;4.82;;;10.30;99.90;;;;;;5071969;28;20079;-79
2021/11/08 08:02:21;;;;;;;6.63;5.30;;;10.30;99.90;;;;;;5072470;28;20103;-78
2021/11/08 08:04:49;;;;;;;8.35;4.55;;;10.30;99.90;;;;;;5072397;28;20020;-78
2021/11/08 08:07:15;;;;;;;4.93;4.05;;;10.20;99.90;;;;;;5073165;28;20024;-78
2021/11/08 08:09:41;;;;;;;5.25;4.75;;;10.20;99.90;;;;;;5073214;28;20020;-78
2021/11/08 08:12:08;;;;;;;5.28;4.80;;;10.30;99.90;;;;;;5073190;28;20024;-79
2021/11/08 08:14:33;;;;;;;4.97;4.57;;;10.30;99.90;;;;;;5073234;28;20032;-79
2021/11/08 08:17:03;;;;;;;5.78;5.00;;;10.20;99.90;;;;;;5073225;28;20028;-78
2021/11/08 08:19:31;;;;;;;6.47;5.05;;;10.20;99.90;;;;;;5071927;28;20020;-78
2021/11/08 08:21:57;;;;;;;7.38;5.47;;;10.20;99.90;;;;;;5073172;28;20024;-79
2021/11/08 08:24:23;;;;;;;7.63;5.55;;;10.30;99.90;;;;;;5072885;28;20073;-79
2021/11/08 08:26:49;;;;;;;6.32;5.20;;;10.20;99.90;;;;;;5073034;28;20115;-79
2021/11/08 08:29:18;;;;;;;6.03;5.10;;;10.20;99.90;;;;;;5073041;28;20028;-78
2021/11/08 08:31:45;;;;;;;5.57;4.65;;;10.20;99.90;;;;;;5070889;28;20195;-79
2021/11/08 08:34:13;;;;;;;3.35;3.00;;;10.20;99.90;;;;;;5071568;28;20024;-79
2021/11/08 08:36:40;;;;;;;5.68;4.20;;;10.20;99.90;;;;;;5071379;28;20664;-79
2021/11/08 08:39:07;;;;;;;6.13;3.90;;;10.20;99.90;;;;;;5071517;28;20510;-78
2021/11/08 08:41:34;;;;;;;7.05;4.10;;;10.30;99.90;;;;;;5070768;28;20380;-79
2021/11/08 08:44:00;;;;;;;4.95;3.63;;;10.20;99.90;;;;;;5070236;28;20028;-79
2021/11/08 08:46:26;;;;;;;8.10;3.72;;;10.20;99.90;;;;;;5071456;28;20262;-78
2021/11/08 08:48:53;;;;;;;4.30;3.90;;;10.20;99.90;;;;;;5069112;28;20479;-79
2021/11/08 08:51:20;;;;;;;6.78;4.60;;;10.20;99.90;;;;;;5071287;28;20148;-79
2021/11/08 08:53:46;;;;;;;7.15;4.68;;;10.20;99.90;;;;;;5071392;28;20036;-79
2021/11/08 08:56:13;;;;;;;5.40;4.47;;;10.20;99.90;;;;;;5069504;28;20062;-79
2021/11/08 08:58:40;;;;;;;5.30;4.78;;;10.20;99.90;;;;;;5068750;28;20029;-79
2021/11/08 09:01:06;;;;;;;7.40;4.80;;;10.20;99.90;;;;;;5070363;28;20021;-79
2021/11/08 09:03:32;;;;;;;4.88;4.32;;;10.30;99.90;;;;;;5071147;28;20644;-78
2021/11/08 09:05:57;;;;;;;5.18;4.05;;;10.20;99.90;;;;;;5070127;28;20115;-79
2021/11/08 09:08:23;;;;;;;6.45;4.47;;;10.30;99.90;;;;;;5071264;28;20122;-79
2021/11/08 09:10:49;;;;;;;5.80;4.82;;;10.30;99.90;;;;;;5069933;28;20391;-79
2021/11/08 09:13:15;;;;;;;5.97;4.68;;;10.30;99.90;;;;;;5069899;28;20127;-79
2021/11/08 09:15:42;;;;;;;5.38;4.45;;;10.30;99.90;;;;;;5071024;28;20024;-79
2021/11/08 09:18:09;;;;;;;6.00;5.22;;;10.30;99.90;;;;;;5071128;28;20028;-79
2021/11/08 09:20:37;;;;;;;7.43;6.00;;;10.30;99.90;;;;;;5071266;28;20021;-79
2021/11/08 09:23:05;;;;;;;10.15;7.53;;;10.30;99.90;;;;;;5068188;28;20032;-78
2021/11/08 09:25:31;;;;;;;14.48;8.82;;;10.30;99.90;;;;;;5051222;28;20021;-78
2021/11/08 09:28:02;;;;;;;11.43;7.70;;;10.30;99.90;;;;;;5051077;28;20021;-79
2021/11/08 09:30:31;;;;;;;13.20;7.80;;;10.30;99.90;;;;;;5051038;28;20086;-79
2021/11/08 09:32:56;;;;;;;10.60;8.52;;;10.30;99.90;;;;;;5050974;28;20036;-79
2021/11/08 09:35:23;;;;;;;11.40;7.82;;;10.30;99.90;;;;;;5050781;28;20507;-79
2021/11/08 09:37:50;;;;;;;10.45;7.28;;;10.30;99.90;;;;;;5050888;28;20021;-79
2021/11/08 09:40:21;;;;;;;6.43;5.82;;;10.30;99.90;;;;;;5049626;28;20078;-79
2021/11/08 09:42:51;;;;;;;9.77;6.65;;;10.20;99.90;;;;;;5050823;28;20021;-79
2021/11/08 09:45:17;;;;;;;9.45;6.90;;;10.30;99.90;;;;;;5050911;28;20063;-79
2021/11/08 09:47:45;;;;;;;9.27;8.05;;;10.30;99.90;;;;;;5051141;28;20503;-79
2021/11/08 09:50:13;;;;;;;8.05;6.40;;;10.30;99.90;;;;;;5050811;28;20025;-79
2021/11/08 09:52:45;;;;;;;7.95;5.78;;;10.30;99.90;;;;;;5049389;28;20037;-79
2021/11/08 09:55:14;;;;;;;9.63;5.40;;;10.30;99.90;;;;;;5050890;28;20048;-79
2021/11/08 09:57:40;;;;;;;6.13;5.00;;;10.20;99.90;;;;;;5054352;28;20556;-79
2021/11/08 10:00:23;;;;;;;4.82;4.32;;;10.20;99.90;;;;;;5054566;28;20025;-79
2021/11/08 10:02:54;;;;;;;6.28;4.45;;;10.20;99.90;;;;;;5054416;28;20017;-79
2021/11/08 10:05:21;;;;;;;5.75;4.53;;;10.20;99.90;;;;;;5054617;28;20017;-79
2021/11/08 10:07:49;;;;;;;8.52;4.93;;;10.20;99.90;;;;;;5054273;28;20025;-79
2021/11/08 10:10:15;;;;;;;6.95;5.97;;;10.20;99.90;;;;;;5053011;28;20066;-79
2021/11/08 10:12:42;;;;;;;6.40;5.47;;;10.20;99.90;;;;;;5054379;28;20051;-79
2021/11/08 10:15:08;;;;;;;7.80;5.30;;;10.20;99.90;;;;;;5052884;28;20025;-79
2021/11/08 10:17:34;;;;;;;5.65;4.95;;;10.20;99.90;;;;;;5053911;28;20032;-79
2021/11/08 10:20:04;;;;;;;5.35;4.85;;;10.30;99.90;;;;;;5054233;28;20025;-80
2021/11/08 10:22:32;;;;;;;7.03;5.70;;;10.30;99.90;;;;;;5054205;28;20029;-79
2021/11/08 10:25:00;;;;;;;5.70;5.00;;;10.30;99.90;;;;;;5070276;28;20031;-79
2021/11/08 10:27:39;;;;;;;5.60;5.10;;;10.20;99.90;;;;;;5074998;28;20028;-79
2021/11/08 10:30:06;;;;;;;5.78;4.68;;;10.30;99.90;;;;;;5075173;28;20055;-79
2021/11/08 10:32:36;;;;;;;5.95;5.28;;;10.30;99.90;;;;;;5075307;28;20029;-79
2021/11/08 10:35:02;;;;;;;5.75;5.03;;;10.40;99.90;;;;;;5074906;28;20064;-80
2021/11/08 10:37:31;;;;;;;7.13;5.88;;;10.40;99.90;;;;;;5074670;28;20028;-79
2021/11/08 10:39:59;;;;;;;7.70;5.25;;;10.30;99.90;;;;;;5073814;28;20024;-79
2021/11/08 10:42:28;;;;;;;7.43;5.40;;;10.40;99.90;;;;;;5073633;28;20025;-79
2021/11/08 10:44:55;;;;;;;6.00;5.38;;;10.40;99.90;;;;;;5072982;28;20017;-79
2021/11/08 10:47:21;;;;;;;7.22;5.35;;;10.50;99.90;;;;;;5072616;28;20024;-79
2021/11/08 10:49:48;;;;;;;6.50;5.85;;;10.50;99.90;;;;;;5073835;28;20104;-79
2021/11/08 10:52:15;;;;;;;7.65;5.40;;;10.50;99.90;;;;;;5073746;28;20024;-79
2021/11/08 10:54:58;;;;;;;5.78;5.28;;;10.50;99.90;;;;;;5071774;28;20039;-79
2021/11/08 10:57:26;;;;;;;5.50;4.78;;;10.60;99.90;;;;;;5072325;28;20025;-79
2021/11/08 10:59:55;;;;;;;8.55;5.43;;;10.60;99.90;;;;;;5072085;28;20390;-79
2021/11/08 11:02:31;;;;;;;10.20;6.13;;;10.60;99.90;;;;;;5072241;28;20017;-79
2021/11/08 11:05:02;;;;;;;6.55;5.85;;;10.60;99.90;;;;;;5073414;28;20107;-79
2021/11/08 11:07:31;;;;;;;7.00;5.63;;;10.60;99.90;;;;;;5073213;28;20104;-79
2021/11/08 11:10:07;;;;;;;6.45;5.90;;;10.60;99.90;;;;;;5073208;28;20039;-79
2021/11/08 11:12:34;;;;;;;6.75;5.10;;;10.60;99.90;;;;;;5068988;28;20108;-79
2021/11/08 11:15:12;;;;;;;10.10;5.88;;;10.60;99.90;;;;;;5067207;28;20429;-79
2021/11/08 11:17:41;;;;;;;11.25;6.25;;;10.50;99.90;;;;;;5065955;28;20429;-79
2021/11/08 11:20:33;;;;;;;12.30;6.70;;;10.50;99.90;;;;;;5071348;28;20024;-79
2021/11/08 11:23:21;;;;;;;5.78;5.22;;;10.60;99.90;;;;;;5070341;28;20024;-78
2021/11/08 11:25:52;;;;;;;5.72;4.90;;;10.60;99.90;;;;;;5070560;28;20032;-79
2021/11/08 11:28:47;;;;;;;6.40;4.88;;;10.70;99.90;;;;;;5069767;28;20023;-80
2021/11/08 11:31:24;;;;;;;6.10;4.68;;;10.70;99.90;;;;;;5068012;28;20051;-80
2021/11/08 11:33:54;;;;;;;6.25;4.90;;;10.70;99.90;;;;;;5067190;28;20025;-79
2021/11/08 11:36:20;;;;;;;6.22;4.75;;;10.80;99.90;;;;;;5069198;28;20044;-78
2021/11/08 11:39:02;;;;;;;6.10;4.95;;;10.80;99.90;;;;;;5068620;28;20027;-80
2021/11/08 11:41:30;;;;;;;6.38;5.03;;;10.90;99.90;;;;;;5062595;28;20021;-80
2021/11/08 11:43:58;;;;;;;8.10;4.53;;;10.90;99.90;;;;;;5069190;28;20732;-80
2021/11/08 11:46:26;;;;;;;6.45;5.20;;;11.00;99.90;;;;;;5069713;28;20658;-79
2021/11/08 11:48:53;;;;;;;7.82;5.43;;;11.00;99.90;;;;;;5069283;28;20066;-79
2021/11/08 11:51:25;;;;;;;5.78;4.80;;;11.00;99.90;;;;;;5070011;28;20035;-79
2021/11/08 11:53:52;;;;;;;7.50;5.97;;;11.10;99.90;;;;;;5066920;28;20024;-79
2021/11/08 11:56:20;;;;;;;11.02;6.32;;;11.10;99.90;;;;;;5069127;28;20033;-79
2021/11/08 11:58:47;;;;;;;10.80;6.85;;;11.10;99.90;;;;;;5066975;28;20070;-80
2021/11/08 12:01:15;;;;;;;7.45;5.38;;;11.10;99.90;;;;;;5070305;28;20021;-78
2021/11/08 12:03:45;;;;;;;7.15;4.55;;;11.20;99.90;;;;;;5069539;28;20036;-78
2021/11/08 12:06:14;;;;;;;4.30;3.17;;;11.20;99.90;;;;;;5068679;28;20025;-79
2021/11/08 12:08:42;;;;;;;4.15;3.75;;;11.30;99.90;;;;;;5069460;28;20107;-79
2021/11/08 12:11:09;;;;;;;3.42;3.13;;;11.30;99.90;;;;;;5070325;28;20648;-80
2021/11/08 12:13:40;;;;;;;3.88;3.55;;;11.30;99.90;;;;;;5069853;28;20099;-79
2021/11/08 12:16:14;;;;;;;3.55;3.25;;;11.30;99.90;;;;;;5069846;28;20024;-79
2021/11/08 12:18:39;;;;;;;5.10;4.50;;;11.30;99.90;;;;;;5070332;28;20467;-82
2021/11/08 12:21:05;;;;;;;7.05;5.28;;;11.30;99.90;;;;;;5069674;28;20025;-79
2021/11/08 12:23:39;;;;;;;5.85;5.28;;;11.30;99.90;;;;;;5069670;28;20028;-78
2021/11/08 12:26:23;;;;;;;9.00;5.65;;;11.30;99.90;;;;;;5068545;28;20149;-80
2021/11/08 12:28:50;;;;;;;8.57;6.13;;;11.30;99.90;;;;;;5069777;28;20486;-79
2021/11/08 12:31:23;;;;;;;6.75;5.13;;;11.40;99.90;;;;;;5069368;28;20062;-81
2021/11/08 12:34:05;;;;;;;4.93;4.07;;;11.40;99.90;;;;;;5068221;28;20024;-81
2021/11/08 12:36:31;;;;;;;5.80;3.83;;;11.40;99.90;;;;;;5067378;28;20036;-79
2021/11/08 12:39:17;;;;;;;4.70;4.25;;;11.40;99.90;;;;;;5069069;28;20048;-82
2021/11/08 12:41:47;;;;;;;4.68;3.97;;;11.40;99.90;;;;;;5069696;28;20021;-81
2021/11/08 12:44:16;;;;;;;6.13;3.92;;;11.50;99.90;;;;;;5069182;28;20021;-78
2021/11/08 12:46:58;;;;;;;5.85;4.18;;;11.50;99.90;;;;;;5069486;28;20032;-79
2021/11/08 12:49:36;;;;;;;5.15;4.65;;;11.50;99.90;;;;;;5067723;28;20035;-79
2021/11/08 12:52:09;;;;;;;11.90;4.05;;;11.60;99.90;;;;;;5068083;28;20115;-78
2021/11/08 12:54:57;;;;;;;6.32;3.90;;;11.60;99.90;;;;;;5068601;28;20044;-78
2021/11/08 12:57:26;;;;;;;3.95;3.63;;;11.60;99.90;;;;;;5069611;28;20023;-78
2021/11/08 13:00:25;;;;;;;5.43;4.90;;;11.60;99.90;;;;;;5068919;28;20428;-78
2021/11/08 13:02:56;;;;;;;6.82;4.20;;;11.70;99.90;;;;;;5068749;28;20024;-79
2021/11/08 13:05:39;;;;;;;5.75;4.10;;;11.70;99.90;;;;;;5068521;28;20024;-80
2021/11/08 13:08:23;;;;;;;5.50;4.10;;;11.70;99.90;;;;;;5069871;28;20021;-79
2021/11/08 13:11:16;;;;;;;4.50;4.10;;;11.70;99.90;;;;;;5068882;28;20025;-79
2021/11/08 13:13:55;;;;;;;6.55;4.15;;;11.70;99.90;;;;;;5066103;28;20033;-79
2021/11/08 13:16:41;;;;;;;7.88;4.18;;;11.70;99.90;;;;;;5067420;28;20394;-79
2021/11/08 13:19:13;;;;;;;4.80;4.30;;;11.70;99.90;;;;;;5069381;28;20021;-79
2021/11/08 13:21:40;;;;;;;5.88;4.00;;;11.70;99.90;;;;;;5069591;28;20478;-79
2021/11/08 13:24:07;;;;;;;4.00;3.50;;;11.70;99.90;;;;;;5059867;28;20406;-79
2021/11/08 13:26:33;;;;;;;4.35;3.80;;;11.70;99.90;;;;;;5049522;28;20918;-79
2021/11/08 13:29:00;;;;;;;4.15;3.38;;;11.60;99.90;;;;;;5048461;28;20033;-78
2021/11/08 13:31:27;;;;;;;4.40;3.30;;;11.60;99.90;;;;;;5052660;28;20778;-78
2021/11/08 13:33:55;;;;;;;5.22;4.80;;;11.60;99.90;;;;;;5053518;28;20087;-78
2021/11/08 13:36:21;;;;;;;5.20;4.75;;;11.60;99.90;;;;;;5052146;28;20414;-79
2021/11/08 13:38:58;;;;;;;4.20;3.85;;;11.60;99.90;;;;;;5052617;28;20029;-78
2021/11/08 13:41:30;;;;;;;4.47;3.72;;;11.60;99.90;;;;;;5053462;28;20029;-79
2021/11/08 13:44:02;;;;;;;6.80;4.00;;;11.60;99.90;;;;;;5053296;28;20052;-79
2021/11/08 13:46:30;;;;;;;4.60;4.10;;;11.60;99.90;;;;;;5052967;28;20081;-79
2021/11/08 13:49:05;;;;;;;4.70;4.30;;;11.60;99.90;;;;;;5052384;28;20033;-79
2021/11/08 13:51:33;;;;;;;4.90;4.40;;;11.60;99.90;;;;;;5053734;28;20036;-79
2021/11/08 13:54:14;;;;;;;6.78;4.63;;;11.60;99.90;;;;;;5062522;28;20077;-79
2021/11/08 13:56:46;;;;;;;5.80;4.95;;;11.60;99.90;;;;;;5071909;28;20027;-78
2021/11/08 13:59:17;;;;;;;;;;;11.60;99.90;;;;;;5073669;28;20025;-79
2021/11/08 14:01:45;;;;;;;8.52;5.30;;;11.60;99.90;;;;;;5071794;28;19990;-78
2021/11/08 14:04:12;;;;;;;10.20;6.70;;;11.60;99.90;;;;;;5072353;28;20056;-79
2021/11/08 14:06:44;;;;;;;11.38;7.07;;;11.60;99.90;;;;;;5072973;28;20024;-79
2021/11/08 14:09:18;;;;;;;10.02;6.45;;;11.60;99.90;;;;;;5073132;28;20441;-78
2021/11/08 14:11:47;;;;;;;10.23;6.82;;;11.50;99.90;;;;;;5072771;28;20048;-79
2021/11/08 14:14:20;;;;;;;10.00;7.10;;;11.50;99.90;;;;;;5073394;28;20103;-79
2021/11/08 14:16:49;;;;;;;13.40;9.50;;;11.50;99.90;;;;;;5073195;28;20047;-79
2021/11/08 14:19:16;;;;;;;10.95;9.57;;;11.50;99.90;;;;;;5072607;28;20539;-79
2021/11/08 14:21:46;;;;;;;13.70;9.02;;;11.60;99.90;;;;;;5072140;28;20027;-80
2021/11/08 14:24:21;;;;;;;11.10;8.23;;;11.60;99.90;;;;;;5059910;28;20086;-80
2021/11/08 14:26:55;;;;;;;7.97;7.05;;;11.60;99.90;;;;;;5052334;28;20713;-80
2021/11/08 14:29:24;;;;;;;9.10;6.32;;;11.60;99.90;;;;;;5052362;28;20029;-80
2021/11/08 14:31:54;;;;;;;8.48;6.70;;;11.60;99.90;;;;;;5051933;28;20025;-80
2021/11/08 14:34:24;;;;;;;5.63;5.15;;;11.60;99.90;;;;;;5049514;28;20033;-80
2021/11/08 14:36:51;;;;;;;5.93;4.85;;;11.60;99.90;;;;;;5050707;28;20067;-80
2021/11/08 14:39:22;;;;;;;7.55;4.82;;;11.60;99.90;;;;;;5058563;28;20467;-79
2021/11/08 14:42:00;;;;;;;7.20;3.78;;;11.50;99.90;;;;;;5066312;28;20363;-79